sensor_id;sensor_type;location;lat;lon;timestamp;pressure;altitude;pressure_sealevel;temperature;humidity
65897;BME280;52677;50.898;10.854;2022-07-18T00:01:20;99541.81;;;12.83;61.11
65897;BME280;52677;50.898;10.854;2022-07-18T00:03:20;99540.94;;;12.79;60.94
65897;BME280;52677;50.898;10.854;2022-07-18T00:05:20;99531.22;;;12.70;60.53
65897;BME280;52677;50.898;10.854;2022-07-18T00:07:21;99547.00;;;12.65;60.79
65897;BME280;52677;50.898;10.854;2022-07-18T00:09:21;99539.34;;;12.59;61.42
65897;BME280;52677;50.898;10.854;2022-07-18T00:11:23;99535.63;;;12.51;61.08
65897;BME280;52677;50.898;10.854;2022-07-18T00:13:23;99537.09;;;12.45;61.51
65897;BME280;52677;50.898;10.854;2022-07-18T00:15:24;99539.44;;;12.43;61.36
65897;BME280;52677;50.898;10.854;2022-07-18T00:17:24;99534.47;;;12.33;61.86
65897;BME280;52677;50.898;10.854;2022-07-18T00:19:27;99543.94;;;12.32;61.92
65897;BME280;52677;50.898;10.854;2022-07-18T00:21:27;99547.81;;;12.27;61.30
65897;BME280;52677;50.898;10.854;2022-07-18T00:23:28;99541.53;;;12.30;60.64
65897;BME280;52677;50.898;10.854;2022-07-18T00:25:28;99548.69;;;12.31;60.73
65897;BME280;52677;50.898;10.854;2022-07-18T00:27:29;99539.84;;;12.26;61.18
65897;BME280;52677;50.898;10.854;2022-07-18T00:29:29;99554.38;;;12.19;61.89
65897;BME280;52677;50.898;10.854;2022-07-18T00:31:30;99548.59;;;12.08;63.19
65897;BME280;52677;50.898;10.854;2022-07-18T00:33:30;99544.38;;;11.99;63.27
65897;BME280;52677;50.898;10.854;2022-07-18T00:35:30;99542.28;;;11.92;62.89
65897;BME280;52677;50.898;10.854;2022-07-18T00:37:31;99537.16;;;11.94;62.37
65897;BME280;52677;50.898;10.854;2022-07-18T00:39:31;99537.53;;;11.93;63.33
65897;BME280;52677;50.898;10.854;2022-07-18T00:41:32;99534.03;;;11.96;62.21
65897;BME280;52677;50.898;10.854;2022-07-18T00:43:32;99539.22;;;11.97;62.38
65897;BME280;52677;50.898;10.854;2022-07-18T00:45:33;99539.41;;;11.89;63.15
65897;BME280;52677;50.898;10.854;2022-07-18T00:47:33;99534.84;;;11.80;63.64
65897;BME280;52677;50.898;10.854;2022-07-18T00:49:33;99530.13;;;11.81;62.30
65897;BME280;52677;50.898;10.854;2022-07-18T00:51:34;99530.38;;;11.76;63.25
65897;BME280;52677;50.898;10.854;2022-07-18T00:53:36;99526.28;;;11.70;63.13
65897;BME280;52677;50.898;10.854;2022-07-18T00:55:38;99518.50;;;11.60;63.30
65897;BME280;52677;50.898;10.854;2022-07-18T00:57:40;99525.84;;;11.52;63.95
65897;BME280;52677;50.898;10.854;2022-07-18T00:59:41;99532.81;;;11.46;64.59
65897;BME280;52677;50.898;10.854;2022-07-18T01:02:00;99534.16;;;11.36;64.90
65897;BME280;52677;50.898;10.854;2022-07-18T01:04:00;99529.69;;;11.32;64.86
65897;BME280;52677;50.898;10.854;2022-07-18T01:06:01;99535.84;;;11.25;64.94
65897;BME280;52677;50.898;10.854;2022-07-18T01:08:01;99528.97;;;11.19;65.90
65897;BME280;52677;50.898;10.854;2022-07-18T01:10:04;99536.19;;;11.08;65.90
65897;BME280;52677;50.898;10.854;2022-07-18T01:12:05;99534.94;;;11.05;66.81
65897;BME280;52677;50.898;10.854;2022-07-18T01:14:07;99538.06;;;11.04;65.67
65897;BME280;52677;50.898;10.854;2022-07-18T01:16:07;99537.63;;;11.02;66.26
65897;BME280;52677;50.898;10.854;2022-07-18T01:18:08;99539.69;;;11.05;65.51
65897;BME280;52677;50.898;10.854;2022-07-18T01:20:09;99552.16;;;10.98;66.60
65897;BME280;52677;50.898;10.854;2022-07-18T01:22:10;99537.44;;;10.94;66.63
65897;BME280;52677;50.898;10.854;2022-07-18T01:24:11;99540.03;;;11.03;65.05
65897;BME280;52677;50.898;10.854;2022-07-18T01:26:13;99530.66;;;11.08;65.24
65897;BME280;52677;50.898;10.854;2022-07-18T01:28:14;99531.81;;;11.07;65.12
65897;BME280;52677;50.898;10.854;2022-07-18T01:30:14;99529.56;;;10.96;65.78
65897;BME280;52677;50.898;10.854;2022-07-18T01:32:16;99531.34;;;10.89;66.59
65897;BME280;52677;50.898;10.854;2022-07-18T01:34:25;99537.13;;;10.84;67.01
65897;BME280;52677;50.898;10.854;2022-07-18T01:36:26;99528.66;;;10.77;66.86
65897;BME280;52677;50.898;10.854;2022-07-18T01:38:30;99540.41;;;10.74;67.27
65897;BME280;52677;50.898;10.854;2022-07-18T01:40:31;99529.34;;;10.74;66.93
65897;BME280;52677;50.898;10.854;2022-07-18T01:42:31;99535.47;;;10.67;67.44
65897;BME280;52677;50.898;10.854;2022-07-18T01:44:32;99532.19;;;10.61;68.06
65897;BME280;52677;50.898;10.854;2022-07-18T01:46:33;99535.41;;;10.63;68.40
65897;BME280;52677;50.898;10.854;2022-07-18T01:48:33;99534.94;;;10.61;66.70
65897;BME280;52677;50.898;10.854;2022-07-18T01:50:35;99536.44;;;10.59;67.37
65897;BME280;52677;50.898;10.854;2022-07-18T01:52:35;99536.34;;;10.55;67.67
65897;BME280;52677;50.898;10.854;2022-07-18T01:54:36;99531.06;;;10.50;67.96
65897;BME280;52677;50.898;10.854;2022-07-18T01:56:37;99536.84;;;10.45;68.70
65897;BME280;52677;50.898;10.854;2022-07-18T01:58:37;99529.25;;;10.42;68.05
65897;BME280;52677;50.898;10.854;2022-07-18T02:00:38;99530.41;;;10.41;67.22
65897;BME280;52677;50.898;10.854;2022-07-18T02:02:38;99532.38;;;10.40;67.15
65897;BME280;52677;50.898;10.854;2022-07-18T02:04:39;99533.44;;;10.36;68.18
65897;BME280;52677;50.898;10.854;2022-07-18T02:06:58;99535.63;;;10.30;68.26
65897;BME280;52677;50.898;10.854;2022-07-18T02:08:58;99527.81;;;10.20;69.01
65897;BME280;52677;50.898;10.854;2022-07-18T02:10:59;99535.16;;;10.16;69.03
65897;BME280;52677;50.898;10.854;2022-07-18T02:12:59;99539.00;;;10.11;68.57
65897;BME280;52677;50.898;10.854;2022-07-18T02:14:59;99533.81;;;10.10;68.79
65897;BME280;52677;50.898;10.854;2022-07-18T02:17:00;99532.53;;;10.07;67.88
65897;BME280;52677;50.898;10.854;2022-07-18T02:19:00;99535.31;;;10.07;69.64
65897;BME280;52677;50.898;10.854;2022-07-18T02:21:01;99533.97;;;10.01;69.43
65897;BME280;52677;50.898;10.854;2022-07-18T02:23:02;99530.34;;;10.01;68.72
65897;BME280;52677;50.898;10.854;2022-07-18T02:25:03;99519.66;;;9.99;68.86
65897;BME280;52677;50.898;10.854;2022-07-18T02:27:04;99520.47;;;10.00;68.42
65897;BME280;52677;50.898;10.854;2022-07-18T02:29:04;99521.88;;;9.94;69.27
65897;BME280;52677;50.898;10.854;2022-07-18T02:31:05;99516.66;;;9.92;68.93
65897;BME280;52677;50.898;10.854;2022-07-18T02:33:06;99516.66;;;9.92;68.79
65897;BME280;52677;50.898;10.854;2022-07-18T02:35:07;99520.94;;;9.90;68.93
65897;BME280;52677;50.898;10.854;2022-07-18T02:37:08;99518.09;;;9.86;69.50
65897;BME280;52677;50.898;10.854;2022-07-18T02:39:09;99523.47;;;9.82;69.85
65897;BME280;52677;50.898;10.854;2022-07-18T02:41:09;99520.19;;;9.77;70.49
65897;BME280;52677;50.898;10.854;2022-07-18T02:43:09;99524.41;;;9.74;70.49
65897;BME280;52677;50.898;10.854;2022-07-18T02:45:10;99514.16;;;9.75;68.93
65897;BME280;52677;50.898;10.854;2022-07-18T02:47:10;99511.41;;;9.75;70.06
65897;BME280;52677;50.898;10.854;2022-07-18T02:49:11;99509.44;;;9.75;68.66
65897;BME280;52677;50.898;10.854;2022-07-18T02:51:26;99503.09;;;9.75;68.98
65897;BME280;52677;50.898;10.854;2022-07-18T02:53:27;99502.22;;;9.71;69.94
65897;BME280;52677;50.898;10.854;2022-07-18T02:55:27;99500.59;;;9.70;69.01
65897;BME280;52677;50.898;10.854;2022-07-18T02:57:28;99505.19;;;9.66;70.91
65897;BME280;52677;50.898;10.854;2022-07-18T02:59:28;99511.88;;;9.65;69.97
65897;BME280;52677;50.898;10.854;2022-07-18T03:01:28;99506.47;;;9.56;72.17
65897;BME280;52677;50.898;10.854;2022-07-18T03:03:29;99506.38;;;9.52;72.48
65897;BME280;52677;50.898;10.854;2022-07-18T03:05:29;99503.84;;;9.47;73.30
65897;BME280;52677;50.898;10.854;2022-07-18T03:07:29;99513.97;;;9.43;74.93
65897;BME280;52677;50.898;10.854;2022-07-18T03:09:30;99504.97;;;9.34;74.95
65897;BME280;52677;50.898;10.854;2022-07-18T03:11:30;99504.06;;;9.30;75.65
65897;BME280;52677;50.898;10.854;2022-07-18T03:13:30;99508.19;;;9.24;76.49
65897;BME280;52677;50.898;10.854;2022-07-18T03:15:31;99510.38;;;9.18;76.84
65897;BME280;52677;50.898;10.854;2022-07-18T03:17:31;99513.47;;;9.17;76.40
65897;BME280;52677;50.898;10.854;2022-07-18T03:19:31;99510.50;;;9.22;73.31
65897;BME280;52677;50.898;10.854;2022-07-18T03:21:33;99514.88;;;9.23;73.96
65897;BME280;52677;50.898;10.854;2022-07-18T03:23:33;99516.03;;;9.22;74.68
65897;BME280;52677;50.898;10.854;2022-07-18T03:25:34;99520.16;;;9.16;75.27
65897;BME280;52677;50.898;10.854;2022-07-18T03:27:34;99531.09;;;9.12;75.65
65897;BME280;52677;50.898;10.854;2022-07-18T03:29:35;99525.78;;;9.07;76.29
65897;BME280;52677;50.898;10.854;2022-07-18T03:31:35;99532.66;;;9.01;76.42
65897;BME280;52677;50.898;10.854;2022-07-18T03:33:35;99530.69;;;9.01;76.14
65897;BME280;52677;50.898;10.854;2022-07-18T03:35:36;99536.81;;;9.07;76.99
65897;BME280;52677;50.898;10.854;2022-07-18T03:37:36;99534.28;;;9.02;76.90
65897;BME280;52677;50.898;10.854;2022-07-18T03:39:37;99532.75;;;8.92;76.47
65897;BME280;52677;50.898;10.854;2022-07-18T03:41:37;99531.84;;;8.88;76.99
65897;BME280;52677;50.898;10.854;2022-07-18T03:43:39;99531.69;;;8.85;77.21
65897;BME280;52677;50.898;10.854;2022-07-18T03:45:39;99526.88;;;8.82;77.30
65897;BME280;52677;50.898;10.854;2022-07-18T03:47:39;99528.03;;;8.81;77.34
65897;BME280;52677;50.898;10.854;2022-07-18T03:49:40;99532.28;;;8.78;77.17
65897;BME280;52677;50.898;10.854;2022-07-18T03:51:40;99543.44;;;8.82;77.37
65897;BME280;52677;50.898;10.854;2022-07-18T03:53:40;99535.50;;;8.80;77.26
65897;BME280;52677;50.898;10.854;2022-07-18T03:55:41;99536.41;;;8.84;77.36
65897;BME280;52677;50.898;10.854;2022-07-18T03:57:41;99528.47;;;8.83;77.23
65897;BME280;52677;50.898;10.854;2022-07-18T03:59:41;99536.91;;;8.86;77.19
65897;BME280;52677;50.898;10.854;2022-07-18T04:01:42;99530.56;;;8.86;76.82
65897;BME280;52677;50.898;10.854;2022-07-18T04:03:42;99538.97;;;8.89;76.58
65897;BME280;52677;50.898;10.854;2022-07-18T04:05:43;99528.84;;;8.93;76.59
65897;BME280;52677;50.898;10.854;2022-07-18T04:07:44;99522.66;;;8.96;76.02
65897;BME280;52677;50.898;10.854;2022-07-18T04:09:44;99521.97;;;8.99;76.77
65897;BME280;52677;50.898;10.854;2022-07-18T04:11:45;99522.41;;;9.01;76.06
65897;BME280;52677;50.898;10.854;2022-07-18T04:13:45;99517.16;;;9.09;74.54
65897;BME280;52677;50.898;10.854;2022-07-18T04:15:45;99522.81;;;9.12;74.63
65897;BME280;52677;50.898;10.854;2022-07-18T04:17:46;99516.72;;;9.19;74.76
65897;BME280;52677;50.898;10.854;2022-07-18T04:19:46;99519.69;;;9.26;73.75
65897;BME280;52677;50.898;10.854;2022-07-18T04:21:47;99515.56;;;9.32;74.41
65897;BME280;52677;50.898;10.854;2022-07-18T04:23:47;99512.25;;;9.39;73.43
65897;BME280;52677;50.898;10.854;2022-07-18T04:25:47;99511.78;;;9.49;73.44
65897;BME280;52677;50.898;10.854;2022-07-18T04:27:48;99516.50;;;9.61;72.25
65897;BME280;52677;50.898;10.854;2022-07-18T04:29:48;99510.50;;;9.71;71.73
65897;BME280;52677;50.898;10.854;2022-07-18T04:31:49;99508.88;;;9.82;71.89
65897;BME280;52677;50.898;10.854;2022-07-18T04:33:49;99511.63;;;9.94;72.31
65897;BME280;52677;50.898;10.854;2022-07-18T04:35:49;99511.56;;;10.06;70.41
65897;BME280;52677;50.898;10.854;2022-07-18T04:37:50;99500.72;;;10.13;71.17
65897;BME280;52677;50.898;10.854;2022-07-18T04:39:50;99506.47;;;10.21;71.59
65897;BME280;52677;50.898;10.854;2022-07-18T04:41:51;99511.53;;;10.31;71.45
65897;BME280;52677;50.898;10.854;2022-07-18T04:43:51;99508.97;;;10.38;71.16
65897;BME280;52677;50.898;10.854;2022-07-18T04:45:52;99511.94;;;10.45;71.16
65897;BME280;52677;50.898;10.854;2022-07-18T04:47:53;99498.22;;;10.49;71.38
65897;BME280;52677;50.898;10.854;2022-07-18T04:49:54;99502.78;;;10.57;71.19
65897;BME280;52677;50.898;10.854;2022-07-18T04:51:54;99512.09;;;10.64;70.59
65897;BME280;52677;50.898;10.854;2022-07-18T04:53:54;99509.16;;;10.73;70.53
65897;BME280;52677;50.898;10.854;2022-07-18T04:55:55;99508.63;;;10.83;70.59
65897;BME280;52677;50.898;10.854;2022-07-18T04:57:55;99507.34;;;10.93;70.09
65897;BME280;52677;50.898;10.854;2022-07-18T04:59:56;99506.00;;;11.03;68.75
65897;BME280;52677;50.898;10.854;2022-07-18T05:01:56;99505.53;;;11.16;67.86
65897;BME280;52677;50.898;10.854;2022-07-18T05:03:56;99496.00;;;11.30;67.38
65897;BME280;52677;50.898;10.854;2022-07-18T05:05:57;99495.88;;;11.42;66.31
65897;BME280;52677;50.898;10.854;2022-07-18T05:07:57;99485.94;;;11.57;64.98
65897;BME280;52677;50.898;10.854;2022-07-18T05:09:57;99493.38;;;11.68;66.84
65897;BME280;52677;50.898;10.854;2022-07-18T05:11:58;99496.47;;;11.82;67.52
65897;BME280;52677;50.898;10.854;2022-07-18T05:13:58;99497.91;;;11.92;67.35
65897;BME280;52677;50.898;10.854;2022-07-18T05:15:58;99500.97;;;12.06;68.09
65897;BME280;52677;50.898;10.854;2022-07-18T05:17:59;99501.56;;;12.16;68.54
65897;BME280;52677;50.898;10.854;2022-07-18T05:19:59;99512.09;;;12.26;67.19
65897;BME280;52677;50.898;10.854;2022-07-18T05:21:59;99498.81;;;12.35;67.10
65897;BME280;52677;50.898;10.854;2022-07-18T05:24:00;99501.44;;;12.47;66.79
65897;BME280;52677;50.898;10.854;2022-07-18T05:26:00;99494.13;;;12.58;64.95
65897;BME280;52677;50.898;10.854;2022-07-18T05:28:00;99492.75;;;12.68;65.25
65897;BME280;52677;50.898;10.854;2022-07-18T05:30:03;99496.44;;;12.76;65.44
65897;BME280;52677;50.898;10.854;2022-07-18T05:32:04;99502.25;;;12.90;65.21
65897;BME280;52677;50.898;10.854;2022-07-18T05:34:05;99499.69;;;13.01;65.31
65897;BME280;52677;50.898;10.854;2022-07-18T05:36:06;99501.03;;;13.10;64.89
65897;BME280;52677;50.898;10.854;2022-07-18T05:38:06;99508.34;;;13.18;63.92
65897;BME280;52677;50.898;10.854;2022-07-18T05:40:10;99506.50;;;13.26;63.95
65897;BME280;52677;50.898;10.854;2022-07-18T05:42:10;99501.09;;;13.33;63.10
65897;BME280;52677;50.898;10.854;2022-07-18T05:44:11;99503.22;;;13.43;62.80
65897;BME280;52677;50.898;10.854;2022-07-18T05:46:11;99505.75;;;13.52;61.96
65897;BME280;52677;50.898;10.854;2022-07-18T05:48:11;99503.19;;;13.66;62.47
65897;BME280;52677;50.898;10.854;2022-07-18T05:50:12;99513.34;;;13.82;64.04
65897;BME280;52677;50.898;10.854;2022-07-18T05:52:12;99505.56;;;13.91;62.58
65897;BME280;52677;50.898;10.854;2022-07-18T05:54:13;99499.25;;;13.97;60.73
65897;BME280;52677;50.898;10.854;2022-07-18T05:56:18;99493.38;;;14.02;60.72
65897;BME280;52677;50.898;10.854;2022-07-18T05:58:18;99499.09;;;14.13;61.53
65897;BME280;52677;50.898;10.854;2022-07-18T06:00:19;99495.22;;;14.21;61.04
65897;BME280;52677;50.898;10.854;2022-07-18T06:02:20;99499.66;;;14.26;60.37
65897;BME280;52677;50.898;10.854;2022-07-18T06:04:20;99500.94;;;14.32;60.64
65897;BME280;52677;50.898;10.854;2022-07-18T06:06:20;99494.63;;;14.39;60.52
65897;BME280;52677;50.898;10.854;2022-07-18T06:08:21;99496.34;;;14.47;59.90
65897;BME280;52677;50.898;10.854;2022-07-18T06:10:22;99502.44;;;14.56;59.93
65897;BME280;52677;50.898;10.854;2022-07-18T06:12:23;99498.56;;;14.64;58.65
65897;BME280;52677;50.898;10.854;2022-07-18T06:14:24;99495.47;;;14.73;58.80
65897;BME280;52677;50.898;10.854;2022-07-18T06:16:24;99497.59;;;14.83;59.00
65897;BME280;52677;50.898;10.854;2022-07-18T06:18:24;99499.69;;;14.93;57.99
65897;BME280;52677;50.898;10.854;2022-07-18T06:20:24;99493.78;;;15.02;57.09
65897;BME280;52677;50.898;10.854;2022-07-18T06:22:25;99497.84;;;15.11;55.89
65897;BME280;52677;50.898;10.854;2022-07-18T06:24:26;99496.00;;;15.23;56.06
65897;BME280;52677;50.898;10.854;2022-07-18T06:26:26;99497.25;;;15.32;55.41
65897;BME280;52677;50.898;10.854;2022-07-18T06:28:26;99500.94;;;15.43;55.11
65897;BME280;52677;50.898;10.854;2022-07-18T06:30:28;99506.97;;;15.53;54.29
65897;BME280;52677;50.898;10.854;2022-07-18T06:32:28;99510.22;;;15.58;53.70
65897;BME280;52677;50.898;10.854;2022-07-18T06:34:29;99493.53;;;15.62;53.58
65897;BME280;52677;50.898;10.854;2022-07-18T06:36:29;99492.78;;;15.68;53.21
65897;BME280;52677;50.898;10.854;2022-07-18T06:38:29;99493.25;;;15.78;53.62
65897;BME280;52677;50.898;10.854;2022-07-18T06:40:29;99489.38;;;15.93;52.94
65897;BME280;52677;50.898;10.854;2022-07-18T06:42:30;99490.66;;;16.06;53.16
65897;BME280;52677;50.898;10.854;2022-07-18T06:44:30;99483.47;;;16.12;52.24
65897;BME280;52677;50.898;10.854;2022-07-18T06:46:31;99484.31;;;16.20;51.23
65897;BME280;52677;50.898;10.854;2022-07-18T06:48:31;99483.16;;;16.28;51.47
65897;BME280;52677;50.898;10.854;2022-07-18T06:50:33;99489.56;;;16.36;51.48
65897;BME280;52677;50.898;10.854;2022-07-18T06:52:33;99478.47;;;16.50;50.55
65897;BME280;52677;50.898;10.854;2022-07-18T06:54:34;99485.75;;;16.69;51.40
65897;BME280;52677;50.898;10.854;2022-07-18T06:56:36;99488.56;;;16.79;50.28
65897;BME280;52677;50.898;10.854;2022-07-18T06:58:36;99480.63;;;16.89;49.84
65897;BME280;52677;50.898;10.854;2022-07-18T07:00:37;99476.22;;;16.95;49.86
65897;BME280;52677;50.898;10.854;2022-07-18T07:02:44;99475.84;;;17.07;49.13
65897;BME280;52677;50.898;10.854;2022-07-18T07:04:45;99481.44;;;17.18;47.93
65897;BME280;52677;50.898;10.854;2022-07-18T07:06:45;99474.66;;;17.26;46.89
65897;BME280;52677;50.898;10.854;2022-07-18T07:08:46;99475.88;;;17.39;46.53
65897;BME280;52677;50.898;10.854;2022-07-18T07:10:46;99474.28;;;17.49;47.44
65897;BME280;52677;50.898;10.854;2022-07-18T07:12:49;99474.66;;;17.58;47.75
65897;BME280;52677;50.898;10.854;2022-07-18T07:14:50;99472.69;;;17.73;45.29
65897;BME280;52677;50.898;10.854;2022-07-18T07:16:50;99474.66;;;17.90;45.72
65897;BME280;52677;50.898;10.854;2022-07-18T07:18:50;99468.19;;;18.04;44.96
65897;BME280;52677;50.898;10.854;2022-07-18T07:20:51;99475.38;;;18.15;44.06
65897;BME280;52677;50.898;10.854;2022-07-18T07:22:53;99470.56;;;18.23;43.68
65897;BME280;52677;50.898;10.854;2022-07-18T07:24:54;99475.31;;;18.33;43.14
65897;BME280;52677;50.898;10.854;2022-07-18T07:26:54;99465.66;;;18.41;42.67
65897;BME280;52677;50.898;10.854;2022-07-18T07:28:55;99464.47;;;18.46;42.17
65897;BME280;52677;50.898;10.854;2022-07-18T07:30:55;99468.78;;;18.58;42.46
65897;BME280;52677;50.898;10.854;2022-07-18T07:32:56;99465.47;;;18.84;41.60
65897;BME280;52677;50.898;10.854;2022-07-18T07:34:56;99458.19;;;18.97;41.90
65897;BME280;52677;50.898;10.854;2022-07-18T07:36:56;99455.28;;;19.12;40.04
65897;BME280;52677;50.898;10.854;2022-07-18T07:38:57;99456.38;;;19.25;39.07
65897;BME280;52677;50.898;10.854;2022-07-18T07:40:57;99459.50;;;19.34;39.93
65897;BME280;52677;50.898;10.854;2022-07-18T07:43:09;99449.88;;;19.35;39.10
65897;BME280;52677;50.898;10.854;2022-07-18T07:45:11;99456.25;;;19.39;38.82
65897;BME280;52677;50.898;10.854;2022-07-18T07:47:11;99454.63;;;19.45;39.02
65897;BME280;52677;50.898;10.854;2022-07-18T07:49:12;99450.59;;;19.46;38.56
65897;BME280;52677;50.898;10.854;2022-07-18T07:51:13;99455.72;;;19.55;38.50
65897;BME280;52677;50.898;10.854;2022-07-18T07:53:14;99458.38;;;19.73;38.65
65897;BME280;52677;50.898;10.854;2022-07-18T07:55:14;99453.81;;;19.89;38.31
65897;BME280;52677;50.898;10.854;2022-07-18T07:57:14;99452.47;;;20.01;36.17
65897;BME280;52677;50.898;10.854;2022-07-18T07:59:14;99453.91;;;20.16;35.07
65897;BME280;52677;50.898;10.854;2022-07-18T08:01:15;99449.78;;;20.25;35.16
65897;BME280;52677;50.898;10.854;2022-07-18T08:03:17;99448.75;;;20.42;36.29
65897;BME280;52677;50.898;10.854;2022-07-18T08:05:18;99439.47;;;20.48;35.62
65897;BME280;52677;50.898;10.854;2022-07-18T08:07:18;99438.22;;;20.53;35.75
65897;BME280;52677;50.898;10.854;2022-07-18T08:09:20;99430.88;;;20.59;36.95
65897;BME280;52677;50.898;10.854;2022-07-18T08:11:21;99432.44;;;20.64;35.39
65897;BME280;52677;50.898;10.854;2022-07-18T08:13:21;99424.81;;;20.64;35.43
65897;BME280;52677;50.898;10.854;2022-07-18T08:15:21;99425.13;;;20.70;35.96
65897;BME280;52677;50.898;10.854;2022-07-18T08:17:22;99431.28;;;20.88;35.07
65897;BME280;52677;50.898;10.854;2022-07-18T08:19:22;99431.81;;;21.07;35.02
65897;BME280;52677;50.898;10.854;2022-07-18T08:21:22;99427.53;;;21.22;34.67
65897;BME280;52677;50.898;10.854;2022-07-18T08:23:23;99420.06;;;21.39;35.29
65897;BME280;52677;50.898;10.854;2022-07-18T08:25:24;99420.03;;;21.62;33.48
65897;BME280;52677;50.898;10.854;2022-07-18T08:27:24;99421.63;;;21.63;32.33
65897;BME280;52677;50.898;10.854;2022-07-18T08:29:25;99420.63;;;21.73;34.77
65897;BME280;52677;50.898;10.854;2022-07-18T08:31:25;99422.66;;;21.93;32.03
65897;BME280;52677;50.898;10.854;2022-07-18T08:33:25;99414.03;;;22.03;31.83
65897;BME280;52677;50.898;10.854;2022-07-18T08:35:26;99416.75;;;22.10;31.84
65897;BME280;52677;50.898;10.854;2022-07-18T08:37:27;99407.75;;;22.15;32.45
65897;BME280;52677;50.898;10.854;2022-07-18T08:39:27;99412.09;;;22.20;32.54
65897;BME280;52677;50.898;10.854;2022-07-18T08:41:28;99412.03;;;22.24;32.83
65897;BME280;52677;50.898;10.854;2022-07-18T08:43:28;99407.91;;;22.28;32.21
65897;BME280;52677;50.898;10.854;2022-07-18T08:45:29;99414.25;;;22.32;32.44
65897;BME280;52677;50.898;10.854;2022-07-18T08:47:30;99419.59;;;22.47;32.46
65897;BME280;52677;50.898;10.854;2022-07-18T08:49:31;99414.16;;;22.56;32.60
65897;BME280;52677;50.898;10.854;2022-07-18T08:51:36;99416.31;;;22.68;32.38
65897;BME280;52677;50.898;10.854;2022-07-18T08:53:36;99410.47;;;22.75;30.33
65897;BME280;52677;50.898;10.854;2022-07-18T08:55:37;99415.50;;;22.87;31.07
65897;BME280;52677;50.898;10.854;2022-07-18T08:57:38;99413.13;;;23.02;30.29
65897;BME280;52677;50.898;10.854;2022-07-18T08:59:38;99420.53;;;23.12;31.17
65897;BME280;52677;50.898;10.854;2022-07-18T09:01:39;99415.59;;;23.16;29.97
65897;BME280;52677;50.898;10.854;2022-07-18T09:03:40;99421.31;;;23.29;30.50
65897;BME280;52677;50.898;10.854;2022-07-18T09:05:40;99418.66;;;23.38;29.72
65897;BME280;52677;50.898;10.854;2022-07-18T09:07:42;99411.78;;;23.39;29.06
65897;BME280;52677;50.898;10.854;2022-07-18T09:09:51;99411.41;;;23.53;29.95
65897;BME280;52677;50.898;10.854;2022-07-18T09:11:54;99403.03;;;23.66;28.91
65897;BME280;52677;50.898;10.854;2022-07-18T09:13:55;99406.72;;;23.79;29.20
65897;BME280;52677;50.898;10.854;2022-07-18T09:16:00;99404.16;;;23.85;28.63
65897;BME280;52677;50.898;10.854;2022-07-18T09:18:00;99409.94;;;23.94;29.04
65897;BME280;52677;50.898;10.854;2022-07-18T09:24:14;99410.03;;;24.20;27.04
65897;BME280;52677;50.898;10.854;2022-07-18T09:26:43;99404.41;;;24.32;27.41
65897;BME280;52677;50.898;10.854;2022-07-18T09:30:46;99403.72;;;24.28;27.41
65897;BME280;52677;50.898;10.854;2022-07-18T09:33:09;99407.69;;;24.31;26.96
65897;BME280;52677;50.898;10.854;2022-07-18T09:35:16;99403.53;;;24.35;26.08
65897;BME280;52677;50.898;10.854;2022-07-18T09:37:16;99399.00;;;24.38;27.47
65897;BME280;52677;50.898;10.854;2022-07-18T09:39:20;99401.38;;;24.40;25.95
65897;BME280;52677;50.898;10.854;2022-07-18T09:41:28;99399.03;;;24.51;24.73
65897;BME280;52677;50.898;10.854;2022-07-18T09:43:36;99403.44;;;24.64;25.18
65897;BME280;52677;50.898;10.854;2022-07-18T09:45:45;99398.47;;;24.81;24.72
65897;BME280;52677;50.898;10.854;2022-07-18T09:47:55;99403.22;;;24.97;24.06
65897;BME280;52677;50.898;10.854;2022-07-18T09:49:56;99401.97;;;24.98;22.81
65897;BME280;52677;50.898;10.854;2022-07-18T09:52:04;99399.16;;;24.98;23.90
65897;BME280;52677;50.898;10.854;2022-07-18T09:54:05;99401.56;;;25.12;23.36
65897;BME280;52677;50.898;10.854;2022-07-18T09:56:09;99398.16;;;25.05;22.98
65897;BME280;52677;50.898;10.854;2022-07-18T09:58:10;99403.28;;;25.10;23.04
65897;BME280;52677;50.898;10.854;2022-07-18T10:00:11;99397.81;;;25.15;21.00
65897;BME280;52677;50.898;10.854;2022-07-18T10:02:11;99393.28;;;25.18;22.84
65897;BME280;52677;50.898;10.854;2022-07-18T10:04:12;99393.06;;;25.25;22.07
65897;BME280;52677;50.898;10.854;2022-07-18T10:06:12;99385.91;;;25.33;21.82
65897;BME280;52677;50.898;10.854;2022-07-18T10:08:15;99381.81;;;25.34;22.01
65897;BME280;52677;50.898;10.854;2022-07-18T10:10:17;99378.75;;;25.41;21.57
65897;BME280;52677;50.898;10.854;2022-07-18T10:12:18;99379.06;;;25.43;22.29
65897;BME280;52677;50.898;10.854;2022-07-18T10:14:18;99378.59;;;25.45;21.62
65897;BME280;52677;50.898;10.854;2022-07-18T10:16:18;99386.72;;;25.56;22.34
65897;BME280;52677;50.898;10.854;2022-07-18T10:18:21;99387.41;;;25.60;22.57
65897;BME280;52677;50.898;10.854;2022-07-18T10:20:39;99384.34;;;25.67;22.57
65897;BME280;52677;50.898;10.854;2022-07-18T10:22:42;99378.44;;;25.74;22.16
65897;BME280;52677;50.898;10.854;2022-07-18T10:24:43;99381.28;;;25.74;21.54
65897;BME280;52677;50.898;10.854;2022-07-18T10:27:14;99382.72;;;25.79;22.05
65897;BME280;52677;50.898;10.854;2022-07-18T10:29:16;99379.41;;;25.80;22.24
65897;BME280;52677;50.898;10.854;2022-07-18T10:31:16;99381.41;;;25.92;21.83
65897;BME280;52677;50.898;10.854;2022-07-18T10:33:37;99390.63;;;26.05;21.89
65897;BME280;52677;50.898;10.854;2022-07-18T10:36:01;99378.50;;;26.05;22.18
65897;BME280;52677;50.898;10.854;2022-07-18T10:38:21;99379.22;;;25.96;22.44
65897;BME280;52677;50.898;10.854;2022-07-18T10:40:27;99378.75;;;26.20;23.29
65897;BME280;52677;50.898;10.854;2022-07-18T10:42:28;99391.47;;;26.37;22.55
65897;BME280;52677;50.898;10.854;2022-07-18T10:44:31;99383.44;;;26.36;22.37